sensor_id;sensor_type;location;lat;lon;timestamp;temperature;humidity
45313;SHT31;68267;51.540;5.854;2024-02-04T00:13:06;10.2;95.7
45313;SHT31;68267;51.540;5.854;2024-02-04T00:26:28;10.3;95.6
45313;SHT31;68267;51.540;5.854;2024-02-04T00:39:48;10.3;95.8
45313;SHT31;68267;51.540;5.854;2024-02-04T00:53:07;10.3;95.8
45313;SHT31;68267;51.540;5.854;2024-02-04T01:06:27;10.3;95.9
45313;SHT31;68267;51.540;5.854;2024-02-04T01:19:47;10.4;95.9
45313;SHT31;68267;51.540;5.854;2024-02-04T01:33:06;10.5;95.5
45313;SHT31;68267;51.540;5.854;2024-02-04T01:46:26;10.6;95.1
45313;SHT31;68267;51.540;5.854;2024-02-04T01:59:46;10.6;95.0
45313;SHT31;68267;51.540;5.854;2024-02-04T02:13:05;10.6;94.8
45313;SHT31;68267;51.540;5.854;2024-02-04T02:26:25;10.6;94.7
45313;SHT31;68267;51.540;5.854;2024-02-04T02:39:45;10.6;94.5
45313;SHT31;68267;51.540;5.854;2024-02-04T02:53:04;10.6;94.1
45313;SHT31;68267;51.540;5.854;2024-02-04T03:06:24;10.6;93.7
45313;SHT31;68267;51.540;5.854;2024-02-04T03:19:46;10.6;93.3
45313;SHT31;68267;51.540;5.854;2024-02-04T03:33:06;10.5;92.6
45313;SHT31;68267;51.540;5.854;2024-02-04T03:46:26;10.5;92.0
45313;SHT31;68267;51.540;5.854;2024-02-04T03:59:48;10.4;91.9
45313;SHT31;68267;51.540;5.854;2024-02-04T04:13:07;10.4;92.1
45313;SHT31;68267;51.540;5.854;2024-02-04T04:26:27;10.4;92.1
45313;SHT31;68267;51.540;5.854;2024-02-04T04:39:47;10.4;92.2
45313;SHT31;68267;51.540;5.854;2024-02-04T04:53:06;10.4;92.1
45313;SHT31;68267;51.540;5.854;2024-02-04T05:06:28;10.5;92.0
45313;SHT31;68267;51.540;5.854;2024-02-04T05:19:48;10.5;92.1
45313;SHT31;68267;51.540;5.854;2024-02-04T05:33:08;10.4;93.5
45313;SHT31;68267;51.540;5.854;2024-02-04T05:46:27;10.4;93.7
45313;SHT31;68267;51.540;5.854;2024-02-04T05:59:47;10.5;93.7
45313;SHT31;68267;51.540;5.854;2024-02-04T06:13:07;10.5;93.4
45313;SHT31;68267;51.540;5.854;2024-02-04T06:26:26;10.5;93.2
45313;SHT31;68267;51.540;5.854;2024-02-04T06:39:48;10.5;93.2
45313;SHT31;68267;51.540;5.854;2024-02-04T06:53:08;10.4;93.7
45313;SHT31;68267;51.540;5.854;2024-02-04T07:06:28;10.4;94.3
45313;SHT31;68267;51.540;5.854;2024-02-04T07:19:47;10.3;94.8
45313;SHT31;68267;51.540;5.854;2024-02-04T07:33:07;10.3;94.9
45313;SHT31;68267;51.540;5.854;2024-02-04T07:46:27;10.3;94.7
45313;SHT31;68267;51.540;5.854;2024-02-04T07:59:46;10.4;94.8
45313;SHT31;68267;51.540;5.854;2024-02-04T08:13:06;10.3;95.0
45313;SHT31;68267;51.540;5.854;2024-02-04T08:26:26;10.3;94.3
45313;SHT31;68267;51.540;5.854;2024-02-04T08:39:45;10.4;93.7
45313;SHT31;68267;51.540;5.854;2024-02-04T08:53:05;10.4;94.2
45313;SHT31;68267;51.540;5.854;2024-02-04T09:06:25;10.4;93.8
45313;SHT31;68267;51.540;5.854;2024-02-04T09:19:44;10.6;92.6
45313;SHT31;68267;51.540;5.854;2024-02-04T09:33:04;10.7;92.1
45313;SHT31;68267;51.540;5.854;2024-02-04T09:46:24;10.9;91.4
45313;SHT31;68267;51.540;5.854;2024-02-04T09:59:43;10.9;92.0
45313;SHT31;68267;51.540;5.854;2024-02-04T10:13:03;10.7;93.2
45313;SHT31;68267;51.540;5.854;2024-02-04T10:26:23;10.6;94.9
45313;SHT31;68267;51.540;5.854;2024-02-04T10:39:42;10.5;95.4
45313;SHT31;68267;51.540;5.854;2024-02-04T10:53:02;10.5;95.9
45313;SHT31;68267;51.540;5.854;2024-02-04T11:19:41;10.6;95.7
45313;SHT31;68267;51.540;5.854;2024-02-04T11:33:01;10.5;95.8
45313;SHT31;68267;51.540;5.854;2024-02-04T11:46:20;10.5;95.9
45313;SHT31;68267;51.540;5.854;2024-02-04T11:59:40;10.6;96.0
45313;SHT31;68267;51.540;5.854;2024-02-04T12:13:00;10.6;96.1
45313;SHT31;68267;51.540;5.854;2024-02-04T12:26:19;10.6;96.1
45313;SHT31;68267;51.540;5.854;2024-02-04T12:39:39;10.6;95.9
45313;SHT31;68267;51.540;5.854;2024-02-04T12:52:59;10.6;95.8
45313;SHT31;68267;51.540;5.854;2024-02-04T13:06:18;10.6;96.0
45313;SHT31;68267;51.540;5.854;2024-02-04T13:19:38;10.6;96.2
45313;SHT31;68267;51.540;5.854;2024-02-04T13:33:00;10.7;96.2
45313;SHT31;68267;51.540;5.854;2024-02-04T13:46:20;10.8;96.0
45313;SHT31;68267;51.540;5.854;2024-02-04T13:59:42;10.8;95.0
45313;SHT31;68267;51.540;5.854;2024-02-04T14:13:02;11.0;94.4
45313;SHT31;68267;51.540;5.854;2024-02-04T14:26:21;11.1;93.5
45313;SHT31;68267;51.540;5.854;2024-02-04T14:39:41;11.4;91.9
45313;SHT31;68267;51.540;5.854;2024-02-04T14:53:01;11.5;90.6
45313;SHT31;68267;51.540;5.854;2024-02-04T15:06:20;11.6;89.7
45313;SHT31;68267;51.540;5.854;2024-02-04T15:19:40;11.5;90.0
45313;SHT31;68267;51.540;5.854;2024-02-04T15:33:00;11.3;90.0
45313;SHT31;68267;51.540;5.854;2024-02-04T15:46:19;11.3;90.1
45313;SHT31;68267;51.540;5.854;2024-02-04T15:59:39;11.3;89.5
45313;SHT31;68267;51.540;5.854;2024-02-04T16:12:59;11.4;88.2
45313;SHT31;68267;51.540;5.854;2024-02-04T16:26:18;11.6;87.7
45313;SHT31;68267;51.540;5.854;2024-02-04T16:39:38;11.5;88.2
45313;SHT31;68267;51.540;5.854;2024-02-04T16:52:58;11.5;88.3
45313;SHT31;68267;51.540;5.854;2024-02-04T17:06:20;11.5;87.2
45313;SHT31;68267;51.540;5.854;2024-02-04T17:19:39;11.5;86.7
45313;SHT31;68267;51.540;5.854;2024-02-04T17:32:59;11.5;86.6
45313;SHT31;68267;51.540;5.854;2024-02-04T17:46:19;11.4;86.4
45313;SHT31;68267;51.540;5.854;2024-02-04T17:59:38;11.2;88.1
45313;SHT31;68267;51.540;5.854;2024-02-04T18:12:58;10.9;91.0
45313;SHT31;68267;51.540;5.854;2024-02-04T18:26:18;10.7;93.1
45313;SHT31;68267;51.540;5.854;2024-02-04T18:39:37;10.6;94.4
45313;SHT31;68267;51.540;5.854;2024-02-04T18:52:57;10.5;95.1
45313;SHT31;68267;51.540;5.854;2024-02-04T19:06:17;10.5;95.5
45313;SHT31;68267;51.540;5.854;2024-02-04T19:19:36;10.5;95.5
45313;SHT31;68267;51.540;5.854;2024-02-04T19:32:56;10.6;95.5
45313;SHT31;68267;51.540;5.854;2024-02-04T19:46:16;10.6;95.3
45313;SHT31;68267;51.540;5.854;2024-02-04T19:59:35;10.7;94.9
45313;SHT31;68267;51.540;5.854;2024-02-04T20:12:55;10.8;94.0
45313;SHT31;68267;51.540;5.854;2024-02-04T20:26:17;10.9;93.4
45313;SHT31;68267;51.540;5.854;2024-02-04T20:39:37;10.9;93.0
45313;SHT31;68267;51.540;5.854;2024-02-04T20:52:56;11.0;92.4
45313;SHT31;68267;51.540;5.854;2024-02-04T21:06:16;11.1;91.9
45313;SHT31;68267;51.540;5.854;2024-02-04T21:19:36;11.1;91.6
45313;SHT31;68267;51.540;5.854;2024-02-04T21:32:55;11.1;91.0
45313;SHT31;68267;51.540;5.854;2024-02-04T21:46:15;11.1;90.7
45313;SHT31;68267;51.540;5.854;2024-02-04T21:59:35;11.2;89.8
45313;SHT31;68267;51.540;5.854;2024-02-04T22:12:54;11.1;90.0
45313;SHT31;68267;51.540;5.854;2024-02-04T22:26:14;11.1;89.4
45313;SHT31;68267;51.540;5.854;2024-02-04T22:39:34;11.2;88.8
45313;SHT31;68267;51.540;5.854;2024-02-04T22:52:53;11.3;87.9
45313;SHT31;68267;51.540;5.854;2024-02-04T23:06:13;11.3;87.2
45313;SHT31;68267;51.540;5.854;2024-02-04T23:19:33;11.3;87.3
45313;SHT31;68267;51.540;5.854;2024-02-04T23:32:52;11.2;86.7
45313;SHT31;68267;51.540;5.854;2024-02-04T23:46:12;11.4;85.1
45313;SHT31;68267;51.540;5.854;2024-02-04T23:59:32;11.6;83.9
